TimeEST,TemperatureF,Dew PointF,Humidity,Sea Level PressureIn,VisibilityMPH,Wind Direction,Wind SpeedMPH,Gust SpeedMPH,PrecipitationIn,Events,Conditions,WindDirDegrees,DateUTC
12:15 AM,30.2,30.2,100,30.12,10.0,Calm,Calm,-,N/A,,Clear,0,2013-02-21 05:15:00
12:35 AM,30.2,28.4,93,30.13,10.0,Calm,Calm,-,N/A,,Clear,0,2013-02-21 05:35:00
12:55 AM,28.4,28.4,100,30.13,10.0,Calm,Calm,-,N/A,,Clear,0,2013-02-21 05:55:00
1:15 AM,28.4,28.4,100,30.14,10.0,Calm,Calm,-,N/A,,Clear,0,2013-02-21 06:15:00
1:35 AM,28.4,26.6,93,30.14,10.0,Calm,Calm,-,N/A,,Clear,0,2013-02-21 06:35:00
1:55 AM,28.4,28.4,100,30.13,10.0,Calm,Calm,-,N/A,,Clear,0,2013-02-21 06:55:00
2:15 AM,28.4,26.6,93,30.12,10.0,Calm,Calm,-,N/A,,Clear,0,2013-02-21 07:15:00
2:35 AM,28.4,24.8,86,30.13,10.0,Calm,Calm,-,N/A,,Clear,0,2013-02-21 07:35:00
2:55 AM,28.4,24.8,86,30.13,10.0,Calm,Calm,-,N/A,,Clear,0,2013-02-21 07:55:00
3:15 AM,28.4,24.8,86,30.15,10.0,Calm,Calm,-,N/A,,Clear,0,2013-02-21 08:15:00
3:35 AM,28.4,23.0,80,30.14,10.0,Calm,Calm,-,N/A,,Clear,0,2013-02-21 08:35:00
4:15 AM,30.2,23.0,75,30.14,10.0,Calm,Calm,-,N/A,,Clear,0,2013-02-21 09:15:00
4:35 AM,28.4,23.0,80,30.14,10.0,Calm,Calm,-,N/A,,Clear,0,2013-02-21 09:35:00
4:55 AM,28.4,21.2,74,30.15,10.0,Calm,Calm,-,N/A,,Clear,0,2013-02-21 09:55:00
5:15 AM,28.4,23.0,80,30.16,10.0,Calm,Calm,-,N/A,,Clear,0,2013-02-21 10:15:00
5:35 AM,28.4,23.0,80,30.16,10.0,Calm,Calm,-,N/A,,Clear,0,2013-02-21 10:35:00
5:55 AM,28.4,21.2,74,30.17,10.0,Calm,Calm,-,N/A,,Clear,0,2013-02-21 10:55:00
6:15 AM,26.6,23.0,86,30.17,10.0,Calm,Calm,-,N/A,,Clear,0,2013-02-21 11:15:00
6:35 AM,28.4,19.4,69,30.18,10.0,Calm,Calm,-,N/A,,Clear,0,2013-02-21 11:35:00
6:55 AM,26.6,24.8,93,30.18,10.0,Calm,Calm,-,N/A,,Clear,0,2013-02-21 11:55:00
7:15 AM,28.4,21.2,74,30.19,10.0,Calm,Calm,-,N/A,,Clear,0,2013-02-21 12:15:00
7:35 AM,28.4,21.2,74,30.19,10.0,Calm,Calm,-,N/A,,Clear,0,2013-02-21 12:35:00
7:55 AM,28.4,19.4,69,30.21,10.0,Calm,Calm,-,N/A,,Clear,0,2013-02-21 12:55:00
8:15 AM,32.0,19.4,60,30.21,10.0,Calm,Calm,-,N/A,,Clear,0,2013-02-21 13:15:00
8:35 AM,32.0,19.4,60,30.23,10.0,NE,3.5,-,N/A,,Clear,50,2013-02-21 13:35:00
9:15 AM,37.4,17.6,45,30.23,10.0,NE,3.5,-,N/A,,Clear,50,2013-02-21 14:15:00
9:35 AM,39.2,17.6,42,30.23,10.0,Calm,Calm,-,N/A,,Clear,0,2013-02-21 14:35:00
9:55 AM,41.0,15.8,36,30.22,10.0,ENE,3.5,-,N/A,,Clear,70,2013-02-21 14:55:00
10:35 AM,44.6,15.8,31,30.23,10.0,NNE,3.5,-,N/A,,Clear,20,2013-02-21 15:35:00
10:55 AM,46.4,15.8,29,30.22,10.0,Calm,Calm,-,N/A,,Clear,0,2013-02-21 15:55:00
11:15 AM,48.2,15.8,27,30.22,10.0,NE,3.5,-,N/A,,Clear,40,2013-02-21 16:15:00
11:35 AM,48.2,15.8,27,30.21,10.0,NE,3.5,-,N/A,,Clear,40,2013-02-21 16:35:00
12:15 PM,50.0,14.0,24,30.20,10.0,Calm,Calm,-,N/A,,Clear,0,2013-02-21 17:15:00
12:35 PM,50.0,15.8,26,30.18,10.0,Calm,Calm,-,N/A,,Clear,0,2013-02-21 17:35:00
12:55 PM,53.6,15.8,22,30.17,10.0,West,3.5,-,N/A,,Clear,260,2013-02-21 17:55:00
1:15 PM,53.6,15.8,22,30.16,10.0,Calm,Calm,-,N/A,,Clear,0,2013-02-21 18:15:00
1:35 PM,55.4,17.6,23,30.15,10.0,Calm,Calm,-,N/A,,Clear,0,2013-02-21 18:35:00
1:55 PM,55.4,17.6,23,30.13,10.0,Calm,Calm,-,N/A,,Clear,0,2013-02-21 18:55:00
2:15 PM,57.2,17.6,21,30.11,10.0,Calm,Calm,-,N/A,,Clear,0,2013-02-21 19:15:00
2:35 PM,57.2,19.4,23,30.10,10.0,Calm,Calm,-,N/A,,Clear,0,2013-02-21 19:35:00
2:55 PM,59.0,17.6,20,30.09,10.0,South,3.5,-,N/A,,Clear,190,2013-02-21 19:55:00
3:15 PM,57.2,19.4,23,30.10,10.0,WSW,4.6,-,N/A,,Clear,240,2013-02-21 20:15:00
3:35 PM,59.0,17.6,20,30.11,10.0,Calm,Calm,-,N/A,,Clear,0,2013-02-21 20:35:00
3:55 PM,59.0,19.4,22,30.12,10.0,NNW,3.5,-,N/A,,Clear,340,2013-02-21 20:55:00
4:15 PM,57.2,19.4,23,30.11,10.0,Calm,Calm,-,N/A,,Clear,0,2013-02-21 21:15:00
4:35 PM,57.2,21.2,25,30.11,10.0,Calm,Calm,-,N/A,,Clear,0,2013-02-21 21:35:00
4:55 PM,57.2,24.8,29,30.11,10.0,Calm,Calm,-,N/A,,Clear,0,2013-02-21 21:55:00
5:15 PM,55.4,32.0,41,30.11,10.0,Calm,Calm,-,N/A,,Clear,0,2013-02-21 22:15:00
5:35 PM,53.6,32.0,44,30.11,10.0,Calm,Calm,-,N/A,,Clear,0,2013-02-21 22:35:00
5:55 PM,51.8,32.0,47,30.12,10.0,Calm,Calm,-,N/A,,Clear,0,2013-02-21 22:55:00
6:15 PM,50.0,33.8,54,30.11,10.0,Calm,Calm,-,N/A,,Clear,0,2013-02-21 23:15:00
6:35 PM,48.2,32.0,54,30.12,10.0,Calm,Calm,-,N/A,,Clear,0,2013-02-21 23:35:00
6:55 PM,46.4,28.4,50,30.13,10.0,Calm,Calm,-,N/A,,Clear,0,2013-02-21 23:55:00
7:15 PM,48.2,26.6,43,30.13,10.0,Calm,Calm,-,N/A,,Clear,0,2013-02-22 00:15:00
7:35 PM,44.6,32.0,61,30.14,10.0,Calm,Calm,-,N/A,,Clear,0,2013-02-22 00:35:00
7:55 PM,42.8,32.0,66,30.13,10.0,Calm,Calm,-,N/A,,Clear,0,2013-02-22 00:55:00
8:15 PM,44.6,26.6,49,30.13,10.0,Calm,Calm,-,N/A,,Clear,0,2013-02-22 01:15:00
8:35 PM,44.6,26.6,49,30.13,10.0,Calm,Calm,-,N/A,,Clear,0,2013-02-22 01:35:00
8:55 PM,44.6,24.8,46,30.14,10.0,Calm,Calm,-,N/A,,Clear,0,2013-02-22 01:55:00
9:15 PM,46.4,24.8,43,30.15,10.0,Calm,Calm,-,N/A,,Clear,0,2013-02-22 02:15:00
9:35 PM,46.4,26.6,46,30.16,10.0,Calm,Calm,-,N/A,,Clear,0,2013-02-22 02:35:00
9:55 PM,46.4,30.2,53,30.17,10.0,Calm,Calm,-,N/A,,Clear,0,2013-02-22 02:55:00
10:15 PM,46.4,30.2,53,30.19,10.0,Calm,Calm,-,N/A,,Clear,0,2013-02-22 03:15:00
10:35 PM,46.4,32.0,57,30.18,10.0,Calm,Calm,-,N/A,,Clear,0,2013-02-22 03:35:00
10:55 PM,46.4,28.4,50,30.19,10.0,Calm,Calm,-,N/A,,Clear,0,2013-02-22 03:55:00
11:15 PM,46.4,28.4,50,30.18,10.0,ENE,3.5,-,N/A,,Clear,60,2013-02-22 04:15:00
11:35 PM,46.4,26.6,46,30.20,10.0,Calm,Calm,-,N/A,,Clear,0,2013-02-22 04:35:00
11:55 PM,46.4,28.4,50,30.19,10.0,NE,3.5,-,N/A,,Clear,40,2013-02-22 04:55:00